createdAt,value
2022-08-03T00:00:04.743Z,17.11
2022-08-03T00:01:19.129Z,17.07
2022-08-03T00:02:21.002Z,17.04
2022-08-03T00:03:25.506Z,17.04
2022-08-03T00:04:33.902Z,17.05
2022-08-03T00:05:39.807Z,17.04
2022-08-03T00:06:41.619Z,17.04
2022-08-03T00:07:45.997Z,17.04
2022-08-03T00:08:50.400Z,17.03
2022-08-03T00:09:54.867Z,17.04
2022-08-03T00:10:56.830Z,17.07
2022-08-03T00:12:01.245Z,17.04
2022-08-03T00:13:03.043Z,17.02
2022-08-03T00:14:10.502Z,17.00
2022-08-03T00:15:16.620Z,16.98
2022-08-03T00:16:21.508Z,16.95
2022-08-03T00:17:24.948Z,16.95
2022-08-03T00:18:29.407Z,16.91
2022-08-03T00:19:31.204Z,16.88
2022-08-03T00:20:35.617Z,16.86
2022-08-03T00:21:37.593Z,16.85
2022-08-03T00:22:42.018Z,16.82
2022-08-03T00:23:51.516Z,16.81
2022-08-03T00:24:57.012Z,16.76
2022-08-03T00:25:59.134Z,16.74
2022-08-03T00:27:03.613Z,16.72
2022-08-03T00:28:05.573Z,16.69
2022-08-03T00:29:09.961Z,16.67
2022-08-03T00:30:11.959Z,16.66
2022-08-03T00:31:16.431Z,16.62
2022-08-03T00:32:18.302Z,16.62
2022-08-03T00:33:26.992Z,16.61
2022-08-03T00:34:36.521Z,16.60
2022-08-03T00:35:56.492Z,16.61
2022-08-03T00:36:58.345Z,16.61
2022-08-03T00:38:02.767Z,16.58
2022-08-03T00:39:04.556Z,16.59
2022-08-03T00:40:09.339Z,16.59
2022-08-03T00:41:11.142Z,16.56
2022-08-03T00:42:20.111Z,16.56
2022-08-03T00:43:27.235Z,16.55
2022-08-03T00:44:29.078Z,16.53
2022-08-03T00:45:37.630Z,16.52
2022-08-03T00:46:39.485Z,16.49
2022-08-03T00:47:43.873Z,16.49
2022-08-03T00:48:48.289Z,16.47
2022-08-03T00:49:50.186Z,16.45
2022-08-03T00:50:54.624Z,16.42
2022-08-03T00:51:56.502Z,16.42
2022-08-03T00:53:01.727Z,16.42
2022-08-03T00:54:03.562Z,16.40
2022-08-03T00:55:08.274Z,16.40
2022-08-03T00:56:10.096Z,16.39
2022-08-03T00:57:14.513Z,16.37
2022-08-03T00:58:16.388Z,16.37
2022-08-03T00:59:21.138Z,16.37
2022-08-03T01:00:24.869Z,16.37
2022-08-03T01:01:32.679Z,16.38
2022-08-03T01:02:34.683Z,16.37
2022-08-03T01:03:39.122Z,16.37
2022-08-03T01:04:40.989Z,16.36
2022-08-03T01:05:53.004Z,16.35
2022-08-03T01:06:57.680Z,16.36
2022-08-03T01:08:05.151Z,16.36
2022-08-03T01:09:12.930Z,16.36
2022-08-03T01:10:35.344Z,16.36
2022-08-03T01:11:37.184Z,16.36
2022-08-03T01:14:01.462Z,16.37
2022-08-03T01:14:50.318Z,16.37
2022-08-03T01:15:54.925Z,16.35
2022-08-03T01:17:03.051Z,16.34
2022-08-03T01:18:13.858Z,16.33
2022-08-03T01:19:18.199Z,16.31
2022-08-03T01:20:20.269Z,16.30
2022-08-03T01:21:27.794Z,16.27
2022-08-03T01:22:50.069Z,16.20
2022-08-03T01:24:08.482Z,16.20
2022-08-03T01:25:13.287Z,16.17
2022-08-03T01:26:36.633Z,16.13
2022-08-03T01:27:44.407Z,16.20
2022-08-03T01:29:02.695Z,16.22
2022-08-03T01:30:06.034Z,16.15
2022-08-03T01:31:11.179Z,16.13
2022-08-03T01:32:58.630Z,16.10
2022-08-03T01:33:39.549Z,16.08
2022-08-03T01:34:46.139Z,16.07
2022-08-03T01:35:50.503Z,16.09
2022-08-03T01:36:53.097Z,16.09
2022-08-03T01:38:00.775Z,16.11
2022-08-03T01:39:03.570Z,16.10
2022-08-03T01:40:08.221Z,16.11
2022-08-03T01:41:14.499Z,16.10
2022-08-03T01:42:18.925Z,16.06
2022-08-03T01:44:26.629Z,16.06
2022-08-03T01:44:48.892Z,16.04
2022-08-03T01:45:50.693Z,16.04
2022-08-03T01:46:55.079Z,16.02
2022-08-03T01:47:56.975Z,16.00
2022-08-03T01:49:01.432Z,16.00
2022-08-03T01:50:11.437Z,15.98
2022-08-03T01:51:15.870Z,15.98
2022-08-03T01:52:17.897Z,15.98
2022-08-03T01:53:22.445Z,15.98
2022-08-03T01:54:24.408Z,15.98
2022-08-03T01:55:29.301Z,15.97
2022-08-03T01:56:31.199Z,15.97
2022-08-03T01:57:35.588Z,15.97
2022-08-03T01:58:57.373Z,15.92
2022-08-03T02:00:02.034Z,15.94
2022-08-03T02:01:13.755Z,15.95
2022-08-03T02:02:32.720Z,15.94
2022-08-03T02:03:37.348Z,15.94
2022-08-03T02:04:41.751Z,15.94
2022-08-03T02:05:43.844Z,15.93
2022-08-03T02:07:00.837Z,15.93
2022-08-03T02:08:07.771Z,15.94
2022-08-03T02:09:09.589Z,15.91
2022-08-03T02:10:15.066Z,15.96
2022-08-03T02:11:16.873Z,15.96
2022-08-03T02:12:21.298Z,15.96
2022-08-03T02:13:23.264Z,15.94
2022-08-03T02:14:28.103Z,15.94
2022-08-03T02:15:30.182Z,15.96
2022-08-03T02:16:36.219Z,15.96
2022-08-03T02:17:40.600Z,15.97
2022-08-03T02:18:42.493Z,15.95
2022-08-03T02:19:47.027Z,15.95
2022-08-03T02:20:48.825Z,15.95
2022-08-03T02:21:56.316Z,15.94
2022-08-03T02:23:06.710Z,15.94
2022-08-03T02:24:09.525Z,15.88
2022-08-03T02:25:14.478Z,15.84
2022-08-03T02:26:17.189Z,15.90
2022-08-03T02:27:23.410Z,15.90
2022-08-03T02:28:27.099Z,15.90
2022-08-03T02:29:40.168Z,15.90
2022-08-03T02:30:43.605Z,15.89
2022-08-03T02:31:48.054Z,15.89
2022-08-03T02:32:52.144Z,15.88
2022-08-03T02:33:57.416Z,15.88
2022-08-03T02:34:59.726Z,15.92
2022-08-03T02:36:04.126Z,15.94
2022-08-03T02:37:06.145Z,15.88
2022-08-03T02:38:10.882Z,15.85
2022-08-03T02:39:13.840Z,15.86
2022-08-03T02:41:50.687Z,15.88
2022-08-03T02:42:53.858Z,15.90
2022-08-03T02:44:06.271Z,15.91
2022-08-03T02:45:13.988Z,15.92
2022-08-03T02:46:20.404Z,15.94
2022-08-03T02:47:27.411Z,15.96
2022-08-03T02:48:29.577Z,15.97
2022-08-03T02:49:49.472Z,15.98
2022-08-03T02:50:56.065Z,15.99
2022-08-03T02:51:58.722Z,16.01
2022-08-03T02:53:03.126Z,16.02
2022-08-03T02:54:05.106Z,16.03
2022-08-03T02:55:09.774Z,16.04
2022-08-03T02:56:12.145Z,16.03
2022-08-03T02:57:16.546Z,16.05
2022-08-03T02:58:19.422Z,16.06
2022-08-03T02:59:23.823Z,16.06
2022-08-03T03:00:28.388Z,16.07
2022-08-03T03:01:33.083Z,16.06
2022-08-03T03:02:36.276Z,16.09
2022-08-03T03:03:45.058Z,16.10
2022-08-03T03:05:52.959Z,16.11
2022-08-03T03:06:11.290Z,16.11
2022-08-03T03:07:13.841Z,16.11
2022-08-03T03:08:26.000Z,16.12
2022-08-03T03:09:40.010Z,16.15
2022-08-03T03:10:45.111Z,16.16
2022-08-03T03:11:49.603Z,16.18
2022-08-03T03:12:52.431Z,16.21
2022-08-03T03:13:56.991Z,16.23
2022-08-03T03:14:58.988Z,16.27
2022-08-03T03:16:03.794Z,16.31
2022-08-03T03:17:09.078Z,16.34
2022-08-03T03:18:13.481Z,16.35
2022-08-03T03:19:15.813Z,16.39
2022-08-03T03:20:29.609Z,16.43
2022-08-03T03:21:34.882Z,16.49
2022-08-03T03:22:36.762Z,16.53
2022-08-03T03:23:41.930Z,16.59
2022-08-03T03:24:43.782Z,16.65
2022-08-03T03:25:48.256Z,16.71
2022-08-03T03:26:50.086Z,16.78
2022-08-03T03:27:56.108Z,16.86
2022-08-03T03:28:59.566Z,16.96
2022-08-03T03:30:04.026Z,17.05
2022-08-03T03:31:06.420Z,17.17
2022-08-03T03:32:10.919Z,17.32
2022-08-03T03:33:12.748Z,17.50
2022-08-03T03:34:17.252Z,17.69
2022-08-03T03:35:19.038Z,17.87
2022-08-03T03:36:23.447Z,18.05
2022-08-03T03:37:26.282Z,18.33
2022-08-03T03:38:30.937Z,18.55
2022-08-03T03:39:32.805Z,18.62
2022-08-03T03:40:40.689Z,18.56
2022-08-03T03:41:42.603Z,18.53
2022-08-03T03:42:46.987Z,18.51
2022-08-03T03:43:49.686Z,18.54
2022-08-03T03:44:55.927Z,18.57
2022-08-03T03:45:58.613Z,18.64
2022-08-03T03:47:02.996Z,18.74
2022-08-03T03:48:05.226Z,18.82
2022-08-03T03:49:10.193Z,18.86
2022-08-03T03:50:12.648Z,18.91
2022-08-03T03:51:17.075Z,18.98
2022-08-03T03:52:18.902Z,19.06
2022-08-03T03:53:23.480Z,19.12
2022-08-03T03:54:25.351Z,19.17
2022-08-03T03:55:33.650Z,19.25
2022-08-03T03:56:35.500Z,19.35
2022-08-03T03:57:39.899Z,19.43
2022-08-03T03:58:41.781Z,19.50
2022-08-03T03:59:46.355Z,19.58
2022-08-03T04:00:48.193Z,19.64
2022-08-03T04:01:59.201Z,19.69
2022-08-03T04:03:01.297Z,19.75
2022-08-03T04:04:25.735Z,19.79
2022-08-03T04:05:45.851Z,19.86
2022-08-03T04:07:02.927Z,19.90
2022-08-03T04:08:22.101Z,19.95
2022-08-03T04:09:38.999Z,19.99
2022-08-03T04:10:55.897Z,20.08
2022-08-03T04:12:01.622Z,20.20
2022-08-03T04:13:04.320Z,20.31
2022-08-03T04:14:38.151Z,20.41
2022-08-03T04:15:40.186Z,20.45
2022-08-03T04:16:45.722Z,20.47
2022-08-03T04:17:47.543Z,20.45
2022-08-03T04:18:57.048Z,20.40
2022-08-03T04:20:01.519Z,20.37
2022-08-03T04:21:04.023Z,20.34
2022-08-03T04:22:09.960Z,20.32
2022-08-03T04:23:15.479Z,20.32
2022-08-03T04:24:20.226Z,20.38
2022-08-03T04:25:22.211Z,20.48
2022-08-03T04:26:26.987Z,20.71
2022-08-03T04:27:29.295Z,21.03
2022-08-03T04:28:34.179Z,21.66
2022-08-03T04:29:36.284Z,22.41
2022-08-03T04:30:47.982Z,23.09
2022-08-03T04:31:49.928Z,23.59
2022-08-03T04:32:54.455Z,23.77
2022-08-03T04:33:57.219Z,23.63
2022-08-03T04:35:01.609Z,23.42
2022-08-03T04:36:04.970Z,23.31
2022-08-03T04:37:12.246Z,23.22
2022-08-03T04:38:15.090Z,23.17
2022-08-03T04:39:21.623Z,23.18
2022-08-03T04:40:29.833Z,23.29
2022-08-03T04:42:07.095Z,23.21
2022-08-03T04:42:57.203Z,22.93
2022-08-03T04:44:02.217Z,22.78
2022-08-03T04:45:04.598Z,22.69
2022-08-03T04:46:09.034Z,22.77
2022-08-03T04:47:11.048Z,22.82
2022-08-03T04:48:15.467Z,22.61
2022-08-03T04:49:17.403Z,22.40
2022-08-03T04:50:21.899Z,22.21
2022-08-03T04:51:40.621Z,22.03
2022-08-03T04:52:45.014Z,21.89
2022-08-03T04:53:46.868Z,21.76
2022-08-03T04:54:51.264Z,21.69
2022-08-03T04:55:53.055Z,21.60
2022-08-03T04:56:57.555Z,21.52
2022-08-03T04:57:59.649Z,21.35
2022-08-03T04:59:04.039Z,21.39
2022-08-03T05:00:06.900Z,21.35
2022-08-03T05:01:11.359Z,21.31
2022-08-03T05:02:13.465Z,21.29
2022-08-03T05:03:20.363Z,21.29
2022-08-03T05:04:26.360Z,21.28
2022-08-03T05:05:48.958Z,21.25
2022-08-03T05:06:55.936Z,21.22
2022-08-03T05:08:00.821Z,21.22
2022-08-03T05:09:05.996Z,21.23
2022-08-03T05:10:15.086Z,21.20
2022-08-03T05:11:18.406Z,21.24
2022-08-03T05:12:23.839Z,21.28
2022-08-03T05:13:26.463Z,21.30
2022-08-03T05:14:31.058Z,21.32
2022-08-03T05:15:32.858Z,21.38
2022-08-03T05:16:37.337Z,21.45
2022-08-03T05:17:39.133Z,21.55
2022-08-03T05:18:45.093Z,21.66
2022-08-03T05:19:46.908Z,21.79
2022-08-03T05:20:51.307Z,21.87
2022-08-03T05:21:53.192Z,22.07
2022-08-03T05:22:57.769Z,22.18
2022-08-03T05:23:59.721Z,22.24
2022-08-03T05:25:04.753Z,22.28
2022-08-03T05:26:06.602Z,22.30
2022-08-03T05:27:18.010Z,22.27
2022-08-03T05:28:19.983Z,22.22
2022-08-03T05:29:24.412Z,22.17
2022-08-03T05:30:30.700Z,22.13
2022-08-03T05:31:38.764Z,22.06
2022-08-03T05:32:40.636Z,22.00
2022-08-03T05:33:45.410Z,21.93
2022-08-03T05:34:47.295Z,21.87
2022-08-03T05:35:56.839Z,21.80
2022-08-03T05:37:04.689Z,21.77
2022-08-03T05:38:09.267Z,21.74
2022-08-03T05:39:11.226Z,21.72
2022-08-03T05:40:15.919Z,21.66
2022-08-03T05:41:21.731Z,21.60
2022-08-03T05:42:28.500Z,21.55
2022-08-03T05:43:32.115Z,21.47
2022-08-03T05:44:38.824Z,21.41
2022-08-03T05:45:41.560Z,21.36
2022-08-03T05:46:46.039Z,21.31
2022-08-03T05:47:48.106Z,21.27
2022-08-03T05:48:52.728Z,21.19
2022-08-03T05:49:54.560Z,21.23
2022-08-03T05:50:59.057Z,21.22
2022-08-03T05:52:09.751Z,21.25
2022-08-03T05:53:15.893Z,21.27
2022-08-03T05:54:17.775Z,21.29
2022-08-03T05:55:22.227Z,21.35
2022-08-03T05:56:24.590Z,21.39
2022-08-03T05:57:29.110Z,21.48
2022-08-03T05:58:31.061Z,21.54
2022-08-03T05:59:38.696Z,21.64
2022-08-03T06:00:40.672Z,21.78
2022-08-03T06:01:45.203Z,21.90
2022-08-03T06:02:47.154Z,22.02
2022-08-03T06:03:52.185Z,22.13
2022-08-03T06:04:54.362Z,22.25
2022-08-03T06:06:00.318Z,22.36
2022-08-03T06:07:05.006Z,22.47
2022-08-03T06:08:06.901Z,22.53
2022-08-03T06:09:11.640Z,22.61
2022-08-03T06:10:33.803Z,22.70
2022-08-03T06:11:38.052Z,22.79
2022-08-03T06:12:42.453Z,22.85
2022-08-03T06:13:46.994Z,22.92
2022-08-03T06:14:48.847Z,22.99
2022-08-03T06:15:54.094Z,23.06
2022-08-03T06:16:55.925Z,23.10
2022-08-03T06:18:02.103Z,23.13
2022-08-03T06:19:04.351Z,23.19
2022-08-03T06:20:09.013Z,23.23
2022-08-03T06:21:15.493Z,23.31
2022-08-03T06:22:20.740Z,23.38
2022-08-03T06:23:54.953Z,23.45
2022-08-03T06:24:53.685Z,23.56
2022-08-03T06:25:56.539Z,23.67
2022-08-03T06:27:01.009Z,23.77
2022-08-03T06:28:03.855Z,23.87
2022-08-03T06:29:09.894Z,23.95
2022-08-03T06:30:12.264Z,24.06
2022-08-03T06:31:16.673Z,24.16
2022-08-03T06:32:18.962Z,24.26
2022-08-03T06:33:25.570Z,24.36
2022-08-03T06:34:50.111Z,24.52
2022-08-03T06:35:51.914Z,24.65
2022-08-03T06:37:01.701Z,24.75
2022-08-03T06:38:04.032Z,24.89
2022-08-03T06:39:10.219Z,25.01
2022-08-03T06:40:15.930Z,25.15
2022-08-03T06:41:26.363Z,25.29
2022-08-03T06:42:28.186Z,25.43
2022-08-03T06:43:36.035Z,25.54
2022-08-03T06:44:38.806Z,25.64
2022-08-03T06:45:43.284Z,25.71
2022-08-03T06:46:49.480Z,25.87
2022-08-03T06:48:23.450Z,25.98
2022-08-03T06:49:25.420Z,26.26
2022-08-03T06:50:29.883Z,26.41
2022-08-03T06:52:04.538Z,26.51
2022-08-03T06:52:58.775Z,26.66
2022-08-03T06:54:00.627Z,26.73
2022-08-03T06:55:05.034Z,26.78
2022-08-03T06:56:07.309Z,26.90
2022-08-03T06:57:11.800Z,26.95
2022-08-03T06:58:13.592Z,27.09
2022-08-03T07:00:08.124Z,27.16
2022-08-03T07:00:42.459Z,27.24
2022-08-03T07:01:44.356Z,27.30
2022-08-03T07:02:49.040Z,27.35
2022-08-03T07:03:57.318Z,27.38
2022-08-03T07:04:59.151Z,27.43
2022-08-03T07:06:03.683Z,27.47
2022-08-03T07:07:05.465Z,27.52
2022-08-03T07:08:09.895Z,27.57
2022-08-03T07:09:11.821Z,27.64
2022-08-03T07:10:16.246Z,27.73
2022-08-03T07:11:18.114Z,27.82
2022-08-03T07:12:22.494Z,27.92
2022-08-03T07:13:24.448Z,28.03
2022-08-03T07:14:28.910Z,28.16
2022-08-03T07:15:53.673Z,28.28
2022-08-03T07:16:57.323Z,28.45
2022-08-03T07:17:59.188Z,28.59
2022-08-03T07:19:03.639Z,28.73
2022-08-03T07:20:06.668Z,28.94
2022-08-03T07:21:12.732Z,29.13
2022-08-03T07:22:17.405Z,29.30
2022-08-03T07:23:22.134Z,29.42
2022-08-03T07:24:23.949Z,29.57
2022-08-03T07:25:28.451Z,29.72
2022-08-03T07:26:30.297Z,29.87
2022-08-03T07:27:34.685Z,29.99
2022-08-03T07:28:36.519Z,30.16
2022-08-03T07:29:41.112Z,30.29
2022-08-03T07:30:45.523Z,30.40
2022-08-03T07:31:47.619Z,30.56
2022-08-03T07:32:52.015Z,30.72
2022-08-03T07:33:54.216Z,30.89
2022-08-03T07:35:01.062Z,30.99
2022-08-03T07:36:06.219Z,31.05
2022-08-03T07:37:08.223Z,31.08
2022-08-03T07:38:12.718Z,31.09
2022-08-03T07:39:17.603Z,31.10
2022-08-03T07:40:23.011Z,31.06
2022-08-03T07:41:27.003Z,31.02
2022-08-03T07:42:31.511Z,30.95
2022-08-03T07:43:33.375Z,30.88
2022-08-03T07:44:39.348Z,30.80
2022-08-03T07:45:41.190Z,30.78
2022-08-03T07:46:45.679Z,30.74
2022-08-03T07:47:53.255Z,30.69
2022-08-03T07:48:58.603Z,30.63
2022-08-03T07:50:03.084Z,30.55
2022-08-03T07:51:07.801Z,30.44
2022-08-03T07:52:28.555Z,30.30
2022-08-03T07:53:33.051Z,30.15
2022-08-03T07:54:42.251Z,29.97
2022-08-03T07:55:46.667Z,29.92
2022-08-03T07:56:49.023Z,29.85
2022-08-03T07:58:03.942Z,29.78
2022-08-03T07:59:08.467Z,29.67
2022-08-03T08:00:19.550Z,29.58
2022-08-03T08:01:24.233Z,29.44
2022-08-03T08:02:26.133Z,29.32
2022-08-03T08:03:30.579Z,29.17
2022-08-03T08:04:52.438Z,28.98
2022-08-03T08:05:56.934Z,28.78
2022-08-03T08:06:58.827Z,28.67
2022-08-03T08:08:04.019Z,28.52
2022-08-03T08:09:05.868Z,28.35
2022-08-03T08:10:11.013Z,28.17
2022-08-03T08:11:16.114Z,27.98
2022-08-03T08:12:18.547Z,27.77
2022-08-03T08:13:23.146Z,27.62
2022-08-03T08:14:24.947Z,27.43
2022-08-03T08:15:29.408Z,27.28
2022-08-03T08:16:31.258Z,27.10
2022-08-03T08:17:44.194Z,26.93
2022-08-03T08:18:48.659Z,26.75
2022-08-03T08:19:51.478Z,26.62
2022-08-03T08:20:56.442Z,26.48
2022-08-03T08:22:02.892Z,26.40
2022-08-03T08:23:10.266Z,26.32
2022-08-03T08:24:34.098Z,26.26
2022-08-03T08:25:38.967Z,26.21
2022-08-03T08:26:40.954Z,26.20
2022-08-03T08:28:22.540Z,26.22
2022-08-03T08:29:13.945Z,26.23
2022-08-03T08:30:19.335Z,26.26
2022-08-03T08:31:23.985Z,26.28
2022-08-03T08:32:25.883Z,26.31
2022-08-03T08:34:05.077Z,26.34
2022-08-03T08:34:53.298Z,26.43
2022-08-03T08:35:58.398Z,26.45
2022-08-03T08:37:00.212Z,26.51
2022-08-03T08:38:05.677Z,26.56
2022-08-03T08:39:07.744Z,26.60
2022-08-03T08:40:13.500Z,26.63
2022-08-03T08:41:15.704Z,26.68
2022-08-03T08:42:20.135Z,26.70
2022-08-03T08:43:24.642Z,26.74
2022-08-03T08:44:26.512Z,26.78
2022-08-03T08:45:31.024Z,26.84
2022-08-03T08:46:33.489Z,26.93
2022-08-03T08:47:50.852Z,26.97
2022-08-03T08:48:56.411Z,26.98
2022-08-03T08:50:09.878Z,27.02
2022-08-03T08:51:14.982Z,27.07
2022-08-03T08:52:24.807Z,27.11
2022-08-03T08:53:32.854Z,27.15
2022-08-03T08:54:34.679Z,27.21
2022-08-03T08:55:58.359Z,27.22
2022-08-03T08:57:21.350Z,27.27
2022-08-03T08:58:33.145Z,27.32
2022-08-03T08:59:49.050Z,27.37
2022-08-03T09:00:55.064Z,27.37
2022-08-03T09:01:59.959Z,27.39
2022-08-03T09:03:01.764Z,27.35
2022-08-03T09:04:09.612Z,27.36
2022-08-03T09:05:15.212Z,27.34
2022-08-03T09:06:17.138Z,27.36
2022-08-03T09:07:21.649Z,27.34
2022-08-03T09:08:23.473Z,27.32
2022-08-03T09:10:01.332Z,27.34
2022-08-03T09:10:52.376Z,27.35
2022-08-03T09:12:01.215Z,27.38
2022-08-03T09:13:18.720Z,27.37
2022-08-03T09:14:34.391Z,27.41
2022-08-03T09:16:00.640Z,27.46
2022-08-03T09:17:03.693Z,27.52
2022-08-03T09:18:09.622Z,27.55
2022-08-03T09:19:14.558Z,27.59
2022-08-03T09:20:19.139Z,27.62
2022-08-03T09:21:35.047Z,27.62
2022-08-03T09:22:37.053Z,27.65
2022-08-03T09:26:28.962Z,27.66
2022-08-03T09:27:44.528Z,27.69
2022-08-03T09:28:59.823Z,27.71
2022-08-03T09:30:33.560Z,27.73
2022-08-03T09:31:32.935Z,27.73
2022-08-03T09:32:35.412Z,27.76
2022-08-03T09:33:49.732Z,27.78
2022-08-03T09:34:58.204Z,27.82
2022-08-03T09:36:02.743Z,27.85
2022-08-03T09:37:07.159Z,27.84
2022-08-03T09:38:14.137Z,27.83
2022-08-03T09:39:41.678Z,27.87
2022-08-03T09:40:47.472Z,27.84
2022-08-03T09:42:15.525Z,27.84
2022-08-03T09:43:17.539Z,27.85
2022-08-03T09:44:25.821Z,27.84
2022-08-03T09:45:28.080Z,27.85
2022-08-03T09:46:33.403Z,27.85
2022-08-03T09:47:44.848Z,27.84
2022-08-03T09:48:47.103Z,27.83
2022-08-03T09:50:01.466Z,27.83
2022-08-03T09:51:13.134Z,27.84
2022-08-03T09:52:38.963Z,27.84
2022-08-03T09:53:59.067Z,27.88
2022-08-03T09:55:04.922Z,27.94
2022-08-03T09:56:48.708Z,28.00
2022-08-03T09:57:53.085Z,28.08
2022-08-03T09:58:54.901Z,28.15
2022-08-03T10:00:10.409Z,28.22
2022-08-03T10:01:25.280Z,28.30
2022-08-03T10:02:30.430Z,28.36
2022-08-03T10:03:36.203Z,28.40
2022-08-03T10:05:00.673Z,28.43
2022-08-03T10:06:22.432Z,28.46
2022-08-03T10:07:30.721Z,28.52
2022-08-03T10:08:35.161Z,28.55
2022-08-03T10:09:37.320Z,28.54
2022-08-03T10:10:46.685Z,28.54
2022-08-03T10:11:51.071Z,28.52
2022-08-03T10:12:52.964Z,28.51
2022-08-03T10:14:01.263Z,28.51
2022-08-03T10:15:06.222Z,28.49
2022-08-03T10:16:21.762Z,28.52
2022-08-03T10:17:29.552Z,28.49
2022-08-03T10:18:31.515Z,28.42
2022-08-03T10:19:36.583Z,28.40
2022-08-03T10:20:40.271Z,28.42
2022-08-03T10:21:45.583Z,28.45
2022-08-03T10:22:50.296Z,28.44
2022-08-03T10:23:52.142Z,28.48
2022-08-03T10:25:00.220Z,28.53
2022-08-03T10:26:03.112Z,28.59
2022-08-03T10:27:08.969Z,28.62
2022-08-03T10:28:11.808Z,28.63
2022-08-03T10:29:19.876Z,28.64
2022-08-03T10:30:21.924Z,28.65
2022-08-03T10:31:31.187Z,28.60
2022-08-03T10:32:42.874Z,28.62
2022-08-03T10:33:50.824Z,28.59
2022-08-03T10:35:00.218Z,28.56
2022-08-03T10:36:02.441Z,28.57
2022-08-03T10:37:09.018Z,28.60
2022-08-03T10:38:15.484Z,28.63
2022-08-03T10:39:19.373Z,28.67
2022-08-03T10:40:47.519Z,28.71
2022-08-03T10:41:49.355Z,28.72
2022-08-03T10:42:51.499Z,28.75
2022-08-03T10:43:58.923Z,28.78
2022-08-03T10:45:07.927Z,28.81
2022-08-03T10:46:09.904Z,28.80
2022-08-03T10:47:14.315Z,28.79
2022-08-03T10:48:16.140Z,28.75
2022-08-03T10:49:33.835Z,28.73
2022-08-03T10:50:39.054Z,28.70
2022-08-03T10:51:41.190Z,28.71
2022-08-03T10:53:06.734Z,28.71
2022-08-03T10:54:10.576Z,28.75
2022-08-03T10:55:47.208Z,28.80
2022-08-03T10:57:13.509Z,28.87
2022-08-03T10:58:30.326Z,28.92
2022-08-03T11:00:04.926Z,28.97
2022-08-03T11:01:08.517Z,28.98
2022-08-03T11:02:13.920Z,29.01
2022-08-03T11:03:18.721Z,29.07
2022-08-03T11:04:21.048Z,29.08
2022-08-03T11:05:30.104Z,29.09
2022-08-03T11:06:37.444Z,29.06
2022-08-03T11:07:39.600Z,29.02
2022-08-03T11:08:44.056Z,29.02
2022-08-03T11:09:49.792Z,29.01
2022-08-03T11:10:55.494Z,29.01
2022-08-03T11:11:59.942Z,29.00
2022-08-03T11:13:07.730Z,28.99
2022-08-03T11:14:12.938Z,28.97
2022-08-03T11:15:14.788Z,28.97
2022-08-03T11:16:23.591Z,28.94
2022-08-03T11:17:28.017Z,28.92
2022-08-03T11:18:32.574Z,28.93
2022-08-03T11:19:56.966Z,28.90
2022-08-03T11:21:02.839Z,28.92
2022-08-03T11:22:04.704Z,28.97
2022-08-03T11:23:09.097Z,28.92
2022-08-03T11:24:13.573Z,28.94
2022-08-03T11:25:53.915Z,28.95
2022-08-03T11:26:40.885Z,28.92
2022-08-03T11:27:42.717Z,28.95
2022-08-03T11:28:48.205Z,28.94
2022-08-03T11:29:56.796Z,28.96
2022-08-03T11:31:27.213Z,29.01
2022-08-03T11:32:40.217Z,29.07
2022-08-03T11:34:10.631Z,29.14
2022-08-03T11:35:32.047Z,29.24
2022-08-03T11:36:54.132Z,29.26
2022-08-03T11:38:04.391Z,29.27
2022-08-03T11:39:16.724Z,29.31
2022-08-03T11:40:40.455Z,29.37
2022-08-03T11:41:45.241Z,29.43
2022-08-03T11:42:52.702Z,29.49
2022-08-03T11:43:57.170Z,29.55
2022-08-03T11:44:59.951Z,29.61
2022-08-03T11:46:13.731Z,29.64
2022-08-03T11:47:30.153Z,29.73
2022-08-03T11:48:38.651Z,29.76
2022-08-03T11:49:40.508Z,29.82
2022-08-03T11:50:45.608Z,29.85
2022-08-03T11:51:50.167Z,29.90
2022-08-03T11:52:51.976Z,29.94
2022-08-03T11:54:00.672Z,29.98
2022-08-03T11:55:02.589Z,30.00
2022-08-03T11:56:12.997Z,30.02
2022-08-03T11:57:17.861Z,30.03
2022-08-03T11:59:13.072Z,30.05
2022-08-03T11:59:47.236Z,30.03
2022-08-03T12:00:52.232Z,30.04
2022-08-03T12:01:56.011Z,30.00
2022-08-03T12:03:03.454Z,30.00
2022-08-03T12:04:08.150Z,30.04
2022-08-03T12:05:10.080Z,30.10
2022-08-03T12:06:15.062Z,30.12
2022-08-03T12:07:25.871Z,30.16
2022-08-03T12:08:42.574Z,30.21
2022-08-03T12:09:44.926Z,30.24
2022-08-03T12:10:50.500Z,30.23
2022-08-03T12:12:00.603Z,30.24
2022-08-03T12:13:05.898Z,30.23
2022-08-03T12:14:50.296Z,30.22
2022-08-03T12:15:59.271Z,30.17
2022-08-03T12:17:01.267Z,30.13
2022-08-03T12:18:06.531Z,30.01
2022-08-03T12:19:15.709Z,29.97
2022-08-03T12:20:21.571Z,29.92
2022-08-03T12:21:44.086Z,29.87
2022-08-03T12:23:05.433Z,29.77
2022-08-03T12:24:09.882Z,29.73
2022-08-03T12:25:20.689Z,29.71
2022-08-03T12:26:59.538Z,29.67
2022-08-03T12:28:36.139Z,29.58
2022-08-03T12:29:40.868Z,29.60
2022-08-03T12:30:46.443Z,29.68
2022-08-03T12:31:51.277Z,29.76
2022-08-03T12:32:53.144Z,29.86
2022-08-03T12:34:02.936Z,29.92
2022-08-03T12:35:07.624Z,30.00
2022-08-03T12:36:10.166Z,30.01
2022-08-03T12:37:29.293Z,30.05
2022-08-03T12:38:36.333Z,30.16
2022-08-03T12:40:02.056Z,30.30
2022-08-03T12:41:15.833Z,30.45
2022-08-03T12:42:17.655Z,30.52
2022-08-03T12:43:24.183Z,30.63
2022-08-03T12:44:35.589Z,30.73
2022-08-03T12:45:37.942Z,30.88
2022-08-03T12:46:47.676Z,30.99
2022-08-03T12:47:53.004Z,31.10
2022-08-03T12:49:01.391Z,31.16
2022-08-03T12:50:05.908Z,31.21
2022-08-03T12:51:09.890Z,31.14
2022-08-03T12:52:14.305Z,31.19
2022-08-03T12:53:17.820Z,31.19
2022-08-03T12:54:24.754Z,31.19
2022-08-03T12:55:57.398Z,31.17
2022-08-03T12:57:01.514Z,31.12
2022-08-03T12:58:04.431Z,31.12
2022-08-03T12:59:32.341Z,31.16
2022-08-03T13:00:37.698Z,31.22
2022-08-03T13:01:54.887Z,31.27
2022-08-03T13:03:26.711Z,31.32
2022-08-03T13:04:33.231Z,31.33
2022-08-03T13:05:47.742Z,31.31
2022-08-03T13:07:02.681Z,31.32
2022-08-03T13:08:07.735Z,31.28
2022-08-03T13:09:09.869Z,31.26
2022-08-03T13:10:14.940Z,31.22
2022-08-03T13:11:19.827Z,31.16
2022-08-03T13:12:25.640Z,31.16
2022-08-03T13:13:39.717Z,31.10
2022-08-03T13:14:44.747Z,30.99
2022-08-03T13:15:47.996Z,30.93
2022-08-03T13:16:52.719Z,30.86
2022-08-03T13:17:58.134Z,30.83
2022-08-03T13:19:02.689Z,30.75
2022-08-03T13:20:04.780Z,30.75
2022-08-03T13:21:09.187Z,30.76
2022-08-03T13:22:11.709Z,30.74
2022-08-03T13:23:22.079Z,30.61
2022-08-03T13:24:24.538Z,30.59
2022-08-03T13:25:29.403Z,30.58
2022-08-03T13:26:31.237Z,30.60
2022-08-03T13:28:03.287Z,30.60
2022-08-03T13:29:00.146Z,30.58
2022-08-03T13:30:01.994Z,30.60
2022-08-03T13:31:07.055Z,30.64
2022-08-03T13:32:09.229Z,30.65
2022-08-03T13:33:13.802Z,30.68
2022-08-03T13:34:18.708Z,30.62
2022-08-03T13:35:26.975Z,30.66
2022-08-03T13:36:29.853Z,30.61
2022-08-03T13:37:38.145Z,30.61
2022-08-03T13:38:40.025Z,30.61
2022-08-03T13:39:57.665Z,30.60
2022-08-03T13:41:05.235Z,30.60
2022-08-03T13:42:07.160Z,30.62
2022-08-03T13:43:12.628Z,30.62
2022-08-03T13:44:30.082Z,30.63
2022-08-03T13:45:34.577Z,30.64
2022-08-03T13:46:36.432Z,30.64
2022-08-03T13:47:40.860Z,30.64
2022-08-03T13:48:45.251Z,30.64
2022-08-03T13:49:59.677Z,30.64
2022-08-03T13:51:22.187Z,30.66
2022-08-03T13:52:27.690Z,30.63
2022-08-03T13:53:32.190Z,30.63
2022-08-03T13:54:34.088Z,30.59
2022-08-03T13:55:38.520Z,30.57
2022-08-03T13:56:46.351Z,30.56
2022-08-03T13:58:04.793Z,30.53
2022-08-03T13:59:11.683Z,30.51
2022-08-03T14:00:16.303Z,30.53
2022-08-03T14:01:53.981Z,30.54
2022-08-03T14:03:02.887Z,30.55
2022-08-03T14:04:15.834Z,30.59
2022-08-03T14:05:26.447Z,30.53
2022-08-03T14:06:31.559Z,30.56
2022-08-03T14:07:33.512Z,30.53
2022-08-03T14:08:37.976Z,30.54
2022-08-03T14:09:39.827Z,30.53
2022-08-03T14:10:46.251Z,30.52
2022-08-03T14:12:06.978Z,30.41
2022-08-03T14:13:14.447Z,30.52
2022-08-03T14:14:19.328Z,30.55
2022-08-03T14:15:24.286Z,30.56
2022-08-03T14:16:28.665Z,30.54
2022-08-03T14:17:42.041Z,30.48
2022-08-03T14:18:54.261Z,30.48
2022-08-03T14:19:56.110Z,30.47
2022-08-03T14:21:05.807Z,30.38
2022-08-03T14:22:07.965Z,30.48
2022-08-03T14:23:12.812Z,30.50
2022-08-03T14:24:16.027Z,30.53
2022-08-03T14:25:20.543Z,30.53
2022-08-03T14:26:25.009Z,30.60
2022-08-03T14:27:26.803Z,30.58
2022-08-03T14:28:31.462Z,30.60